Lacey, New Jersey
Current Conditions -  °F | °C
As of 12:55 PM on Saturday 20 Dec 2014 (Local Time) from KMJX Reporting Station
Overcast Overcast  
Wind Chill: -2°   Ceiling: 2900
Heat Index:   Visibility: 10mi
Dew Point: -6°   Wind: 7mph
Humidity: 60%   Direction: 320°NW
Pressure: 30.27"   Gusts: NA
Location:  39.8591°N, 74.2817°W
Report Text: KMJX 201755Z AUTO 32006KT 10SM OVC029 01/M06 A3027 RMK AO1 10010 21010 57010
Loading
Personal Weather Stations






























Interactive Weather Map New forecast layout! Learn more

10-Day Weather Forecast

Advertisements
Track Severe Weather on mobile